createdAt,value
2017-12-19T00:00:32.000Z,24.36
2017-12-19T00:10:32.000Z,24.35
2017-12-19T00:20:32.000Z,24.31
2017-12-19T00:30:32.000Z,24.22
2017-12-19T00:40:32.000Z,24.2
2017-12-19T00:50:32.000Z,24.16
2017-12-19T01:00:32.000Z,24.19
2017-12-19T01:10:32.000Z,24.1
2017-12-19T01:20:32.000Z,24.09
2017-12-19T01:30:32.000Z,24.14
2017-12-19T01:40:32.000Z,24.12
2017-12-19T01:50:32.000Z,24.04
2017-12-19T02:00:32.000Z,24.07
2017-12-19T02:10:32.000Z,24.05
2017-12-19T02:20:32.000Z,23.95
2017-12-19T02:30:32.000Z,24.02
2017-12-19T02:40:32.000Z,24.03
2017-12-19T02:50:32.000Z,23.95
2017-12-19T03:00:32.000Z,23.93
2017-12-19T03:10:32.000Z,23.95
2017-12-19T03:20:32.000Z,23.91
2017-12-19T03:30:32.000Z,23.88
2017-12-19T03:40:32.000Z,23.87
2017-12-19T03:50:32.000Z,23.88
2017-12-19T04:00:32.000Z,23.84
2017-12-19T04:10:32.000Z,23.83
2017-12-19T04:20:32.000Z,23.79
2017-12-19T04:30:32.000Z,23.74
2017-12-19T04:40:32.000Z,23.72
2017-12-19T04:50:32.000Z,23.72
2017-12-19T05:00:32.000Z,23.68
2017-12-19T05:10:32.000Z,23.69
2017-12-19T05:20:32.000Z,23.7
2017-12-19T05:30:32.000Z,23.62
2017-12-19T05:40:32.000Z,23.67
2017-12-19T05:50:33.000Z,23.69
2017-12-19T06:00:33.000Z,23.63
2017-12-19T06:10:33.000Z,23.64
2017-12-19T06:20:33.000Z,23.62
2017-12-19T06:30:33.000Z,23.6
2017-12-19T06:40:33.000Z,23.63
2017-12-19T06:50:33.000Z,23.61
2017-12-19T07:00:33.000Z,23.66
2017-12-19T07:10:33.000Z,23.67
2017-12-19T07:20:33.000Z,23.68
2017-12-19T07:30:33.000Z,23.71
2017-12-19T07:40:33.000Z,23.74
2017-12-19T07:50:33.000Z,23.72
2017-12-19T08:00:33.000Z,23.71
2017-12-19T08:10:33.000Z,23.79
2017-12-19T08:20:33.000Z,23.78
2017-12-19T08:30:33.000Z,23.8
2017-12-19T08:40:33.000Z,23.82
2017-12-19T08:50:33.000Z,23.9
2017-12-19T09:00:33.000Z,23.92
2017-12-19T09:10:33.000Z,23.94
2017-12-19T09:20:33.000Z,23.93
2017-12-19T09:30:33.000Z,23.9
2017-12-19T09:40:33.000Z,23.98
2017-12-19T09:50:33.000Z,24.05
2017-12-19T10:00:37.000Z,24.03
2017-12-19T10:10:33.000Z,24.1
2017-12-19T10:20:33.000Z,24.11
2017-12-19T10:30:33.000Z,24.23
2017-12-19T10:40:33.000Z,24.2
2017-12-19T10:50:33.000Z,24.26
2017-12-19T11:00:33.000Z,24.33
2017-12-19T11:10:33.000Z,24.34
2017-12-19T11:20:33.000Z,24.37
2017-12-19T11:30:33.000Z,24.44
2017-12-19T11:40:33.000Z,24.47
2017-12-19T11:50:33.000Z,24.5
2017-12-19T12:00:33.000Z,24.54
2017-12-19T12:10:34.000Z,24.57
2017-12-19T12:20:33.000Z,24.66
2017-12-19T12:30:33.000Z,24.59
2017-12-19T12:40:33.000Z,24.64
2017-12-19T12:50:33.000Z,24.66
2017-12-19T13:00:33.000Z,24.66
2017-12-19T13:10:33.000Z,24.77
2017-12-19T13:20:33.000Z,24.74
2017-12-19T13:30:33.000Z,23.18
2017-12-19T13:40:33.000Z,23.16
2017-12-19T13:50:33.000Z,24.18
2017-12-19T14:00:34.000Z,24.32
2017-12-19T14:10:34.000Z,24.41
2017-12-19T14:20:34.000Z,24.49
2017-12-19T14:30:34.000Z,24.52
2017-12-19T14:40:34.000Z,24.59
2017-12-19T14:50:34.000Z,24.66
2017-12-19T15:00:34.000Z,24.7
2017-12-19T15:10:34.000Z,24.74
2017-12-19T15:20:34.000Z,24.76
2017-12-19T15:30:34.000Z,24.79
2017-12-19T15:40:34.000Z,24.82
2017-12-19T15:50:34.000Z,24.79
2017-12-19T16:00:34.000Z,24.86
2017-12-19T16:10:34.000Z,24.85
2017-12-19T16:20:34.000Z,24.85
2017-12-19T16:30:34.000Z,24.9
2017-12-19T16:40:34.000Z,24.94
2017-12-19T16:50:34.000Z,24.98
2017-12-19T17:00:34.000Z,24.98
2017-12-19T17:10:34.000Z,25
2017-12-19T17:20:34.000Z,24.95
2017-12-19T17:30:34.000Z,24.99
2017-12-19T17:40:34.000Z,24.97
2017-12-19T17:50:34.000Z,25.05
2017-12-19T18:00:34.000Z,24.99
2017-12-19T18:10:34.000Z,24.98
2017-12-19T18:20:35.000Z,24.95
2017-12-19T18:30:35.000Z,24.99
2017-12-19T18:40:34.000Z,24.97
2017-12-19T18:50:34.000Z,25.02
2017-12-19T19:00:34.000Z,25.08
2017-12-19T19:10:34.000Z,25
2017-12-19T19:20:34.000Z,24.97
2017-12-19T19:30:34.000Z,24.98
2017-12-19T19:40:34.000Z,24.94
2017-12-19T19:50:34.000Z,24.96
2017-12-19T20:00:34.000Z,24.94
2017-12-19T20:10:34.000Z,24.91
2017-12-19T20:20:34.000Z,24.93
2017-12-19T20:30:34.000Z,24.9
2017-12-19T20:40:34.000Z,24.78
2017-12-19T20:50:34.000Z,24.87
2017-12-19T21:00:34.000Z,24.83
2017-12-19T21:10:34.000Z,24.86
2017-12-19T21:20:34.000Z,24.84
2017-12-19T21:30:34.000Z,24.83
2017-12-19T21:40:34.000Z,24.77
2017-12-19T21:50:34.000Z,24.78
2017-12-19T22:00:34.000Z,24.75
2017-12-19T22:10:35.000Z,24.77
2017-12-19T22:20:35.000Z,24.77
2017-12-19T22:30:34.000Z,24.76
2017-12-19T22:40:35.000Z,24.74
2017-12-19T22:50:35.000Z,24.67
2017-12-19T23:00:35.000Z,24.7
2017-12-19T23:10:35.000Z,24.74
2017-12-19T23:20:35.000Z,24.67
2017-12-19T23:30:35.000Z,24.54
2017-12-19T23:40:35.000Z,24.59
2017-12-19T23:50:35.000Z,24.55
